Time;durP1;ratioP1;P1;durP2;ratioP2;P2;SDS_P1;SDS_P2;PMS_P1;PMS_P2;Temp;Humidity;BMP_temperature;BMP_pressure;BME280_temperature;BME280_humidity;BME280_pressure;Samples;Min_cycle;Max_cycle;Signal;HPM_P1;HPM_P2
2024/01/09 00:00:17;;;;;;;6.53;2.23;;;1.20;52.80;;;;;;5093095;28;20337;-74
2024/01/09 00:02:43;;;;;;;5.87;2.53;;;1.20;52.80;;;;;;5092586;28;20185;-74
2024/01/09 00:05:09;;;;;;;6.97;2.63;;;1.20;52.90;;;;;;5092814;28;20055;-74
2024/01/09 00:07:35;;;;;;;6.70;2.60;;;1.20;52.80;;;;;;5092862;28;20119;-74
2024/01/09 00:10:00;;;;;;;6.93;2.37;;;1.10;52.80;;;;;;5092972;28;20043;-73
2024/01/09 00:12:26;;;;;;;6.23;2.40;;;1.10;52.80;;;;;;5092507;28;20035;-73
2024/01/09 00:14:52;;;;;;;6.10;2.27;;;1.10;52.80;;;;;;5093652;28;20043;-73
2024/01/09 00:17:18;;;;;;;6.47;2.53;;;1.10;52.80;;;;;;5092460;28;20028;-73
2024/01/09 00:19:44;;;;;;;7.87;2.60;;;1.00;52.80;;;;;;5097183;28;20020;-73
2024/01/09 00:22:09;;;;;;;6.23;2.30;;;1.00;52.80;;;;;;5081298;28;20037;-73
2024/01/09 00:24:35;;;;;;;6.70;2.53;;;1.00;52.80;;;;;;5097142;28;20029;-73
2024/01/09 00:27:01;;;;;;;9.23;2.40;;;1.10;53.50;;;;;;5096477;28;20182;-74
2024/01/09 00:29:26;;;;;;;6.30;2.47;;;1.00;52.80;;;;;;5096392;28;20050;-74
2024/01/09 00:31:52;;;;;;;6.60;2.63;;;1.10;52.90;;;;;;5097247;28;20044;-74
2024/01/09 00:34:18;;;;;;;7.57;3.00;;;1.00;52.80;;;;;;5079907;28;20124;-73
2024/01/09 00:36:44;;;;;;;6.23;2.70;;;1.00;52.80;;;;;;5096433;28;20053;-74
2024/01/09 00:39:11;;;;;;;5.47;2.07;;;1.00;52.80;;;;;;5097178;28;20118;-73
2024/01/09 00:41:37;;;;;;;5.60;2.17;;;1.00;52.80;;;;;;5101758;28;20478;-73
2024/01/09 00:44:03;;;;;;;5.83;2.07;;;0.90;52.80;;;;;;5105723;28;20115;-73
2024/01/09 00:46:29;;;;;;;6.33;2.40;;;0.90;52.90;;;;;;5099483;28;20353;-73
2024/01/09 00:48:55;;;;;;;7.53;2.53;;;0.90;52.90;;;;;;5098534;28;20321;-73
2024/01/09 00:51:20;;;;;;;6.00;2.50;;;0.90;52.90;;;;;;5098074;28;20173;-73
2024/01/09 00:53:46;;;;;;;6.30;2.37;;;0.90;52.80;;;;;;5097279;28;20099;-73
2024/01/09 00:56:12;;;;;;;6.80;2.67;;;0.90;52.80;;;;;;5096346;28;20345;-73
2024/01/09 00:58:38;;;;;;;6.87;2.20;;;0.90;52.80;;;;;;5097643;28;20467;-73
2024/01/09 01:01:03;;;;;;;7.20;2.47;;;0.90;52.80;;;;;;5096091;28;20024;-74
2024/01/09 01:03:29;;;;;;;7.03;2.63;;;0.90;52.80;;;;;;5097167;28;20467;-74
2024/01/09 01:05:55;;;;;;;6.10;2.70;;;0.90;52.80;;;;;;5096583;28;20119;-74
2024/01/09 01:08:21;;;;;;;5.93;2.37;;;0.90;52.80;;;;;;5095942;28;20405;-74
2024/01/09 01:10:48;;;;;;;6.07;2.37;;;0.90;52.80;;;;;;5079000;28;20419;-74
2024/01/09 01:13:14;;;;;;;6.83;2.40;;;0.80;52.70;;;;;;5097181;28;20441;-74
2024/01/09 01:15:39;;;;;;;6.77;2.57;;;0.90;52.80;;;;;;5106972;28;20024;-74
2024/01/09 01:18:05;;;;;;;5.63;2.00;;;0.90;52.80;;;;;;5095911;28;20127;-74
2024/01/09 01:20:31;;;;;;;7.00;2.40;;;0.90;52.80;;;;;;5097497;28;20360;-74
2024/01/09 01:22:57;;;;;;;5.83;2.07;;;0.90;52.80;;;;;;5091187;28;20054;-74
2024/01/09 01:25:23;;;;;;;5.20;2.20;;;0.80;52.80;;;;;;5095777;28;20516;-74
2024/01/09 01:27:48;;;;;;;5.83;2.37;;;0.80;52.80;;;;;;5078718;28;20120;-74
2024/01/09 01:30:14;;;;;;;5.30;2.20;;;0.80;52.90;;;;;;5101937;28;20102;-74
2024/01/09 01:32:40;;;;;;;7.33;2.50;;;0.80;53.00;;;;;;5098513;28;20125;-74
2024/01/09 01:35:06;;;;;;;4.97;2.00;;;0.80;53.00;;;;;;5095164;28;20066;-73
2024/01/09 01:37:32;;;;;;;6.37;2.53;;;0.80;53.00;;;;;;5095657;28;20035;-74
2024/01/09 01:39:57;;;;;;;5.43;2.10;;;0.80;53.10;;;;;;5101804;28;20444;-74
2024/01/09 01:42:23;;;;;;;7.00;2.50;;;0.80;53.10;;;;;;5123876;27;20451;-74
2024/01/09 01:44:49;;;;;;;7.77;2.77;;;0.80;53.20;;;;;;5081917;28;20432;-74
2024/01/09 01:47:15;;;;;;;4.97;2.10;;;0.80;53.10;;;;;;5096415;28;20028;-74
2024/01/09 01:49:42;;;;;;;6.50;2.37;;;0.80;53.20;;;;;;5103562;28;20341;-74
2024/01/09 01:52:09;;;;;;;5.70;2.27;;;0.80;53.30;;;;;;5094872;28;20043;-74
2024/01/09 01:54:38;;;;;;;6.13;2.60;;;0.70;53.90;;;;;;5095201;28;20452;-73
2024/01/09 01:57:05;;;;;;;5.80;2.50;;;0.80;53.40;;;;;;5095854;28;20054;-74
2024/01/09 01:59:34;;;;;;;7.30;2.47;;;0.70;53.30;;;;;;5101036;28;20040;-74
2024/01/09 02:02:02;;;;;;;6.30;2.50;;;0.70;53.40;;;;;;5094485;28;20039;-74
2024/01/09 02:04:28;;;;;;;4.77;2.10;;;0.70;53.60;;;;;;5096282;28;20032;-74
2024/01/09 02:06:54;;;;;;;8.13;2.67;;;0.70;53.60;;;;;;5103534;28;20028;-73
2024/01/09 02:09:20;;;;;;;6.23;2.73;;;0.70;53.70;;;;;;5110930;28;20028;-73
2024/01/09 02:11:49;;;;;;;6.13;2.37;;;0.60;53.70;;;;;;5095423;28;20028;-73
2024/01/09 02:14:15;;;;;;;6.80;2.33;;;0.70;53.80;;;;;;5095782;28;20480;-73
2024/01/09 02:16:41;;;;;;;6.93;2.57;;;0.60;53.80;;;;;;5110057;28;20028;-74
2024/01/09 02:19:07;;;;;;;5.73;1.80;;;0.70;53.90;;;;;;5101978;28;20016;-74
2024/01/09 02:21:33;;;;;;;8.83;2.70;;;0.70;54.00;;;;;;5091579;28;20372;-74
2024/01/09 02:23:59;;;;;;;4.97;2.07;;;0.60;54.00;;;;;;5089066;28;20081;-74
2024/01/09 02:26:30;;;;;;;5.90;2.60;;;0.70;54.10;;;;;;5094431;28;20024;-74
2024/01/09 02:29:01;;;;;;;5.85;2.38;;;0.60;54.10;;;;;;5098946;28;20513;-74
2024/01/09 02:31:27;;;;;;;5.23;2.23;;;0.60;54.10;;;;;;5097699;28;20024;-74
2024/01/09 02:33:53;;;;;;;5.43;2.17;;;0.60;54.20;;;;;;5094865;28;20024;-73
2024/01/09 02:36:19;;;;;;;6.90;2.67;;;0.60;54.20;;;;;;5091289;28;20043;-74
2024/01/09 02:38:45;;;;;;;6.83;2.50;;;0.60;54.30;;;;;;5098102;28;20364;-74
2024/01/09 02:41:11;;;;;;;5.23;2.20;;;0.60;54.30;;;;;;5100618;28;20023;-74
2024/01/09 02:43:36;;;;;;;7.47;2.50;;;0.60;54.40;;;;;;5094389;28;20140;-74
2024/01/09 02:46:02;;;;;;;6.57;2.70;;;0.50;54.40;;;;;;5093837;28;20047;-74
2024/01/09 02:48:28;;;;;;;7.93;2.97;;;0.50;54.50;;;;;;5093640;28;20031;-74
2024/01/09 02:50:54;;;;;;;5.50;2.13;;;0.50;54.50;;;;;;5093988;28;20380;-74
2024/01/09 02:53:19;;;;;;;6.43;2.43;;;0.50;54.60;;;;;;5090684;28;20035;-73
2024/01/09 02:55:45;;;;;;;6.30;2.17;;;0.50;54.70;;;;;;5094222;28;20035;-74
2024/01/09 02:58:11;;;;;;;5.80;2.50;;;0.50;54.70;;;;;;5092880;28;20024;-73
2024/01/09 03:00:36;;;;;;;5.50;2.60;;;0.50;54.70;;;;;;5095082;28;20023;-73
2024/01/09 03:03:02;;;;;;;5.33;2.30;;;0.40;54.70;;;;;;5094898;28;20069;-74
2024/01/09 03:05:28;;;;;;;7.57;2.57;;;0.40;54.80;;;;;;5093836;28;20040;-74
2024/01/09 03:07:54;;;;;;;6.00;2.03;;;0.40;54.80;;;;;;5094248;28;20084;-73
2024/01/09 03:10:20;;;;;;;6.10;2.30;;;0.40;54.90;;;;;;5092273;28;20061;-74
2024/01/09 03:12:45;;;;;;;7.90;2.17;;;0.40;54.90;;;;;;5094290;28;20096;-73
2024/01/09 03:15:11;;;;;;;6.67;2.60;;;0.40;55.00;;;;;;5093395;28;20024;-74
2024/01/09 03:17:37;;;;;;;6.07;2.30;;;0.30;55.00;;;;;;5092954;28;20177;-74
2024/01/09 03:20:03;;;;;;;6.17;2.67;;;0.40;55.00;;;;;;5092717;28;20039;-73
2024/01/09 03:22:29;;;;;;;6.43;2.53;;;0.40;55.00;;;;;;5088117;28;20041;-73
2024/01/09 03:24:55;;;;;;;8.37;2.77;;;0.40;55.00;;;;;;5084768;28;20368;-74
2024/01/09 03:27:21;;;;;;;5.90;2.50;;;0.40;55.00;;;;;;5094122;28;20036;-74
2024/01/09 03:29:46;;;;;;;7.07;2.80;;;0.30;55.00;;;;;;5093270;28;20032;-73
2024/01/09 03:32:12;;;;;;;6.93;2.53;;;0.30;55.00;;;;;;5093490;28;20031;-73
2024/01/09 03:34:40;;;;;;;6.10;2.47;;;0.30;55.00;;;;;;5088178;28;20349;-74
2024/01/09 03:37:07;;;;;;;6.80;2.50;;;0.30;55.10;;;;;;5092044;28;20020;-74
2024/01/09 03:39:33;;;;;;;5.17;2.47;;;0.30;55.70;;;;;;5093422;28;20448;-74
2024/01/09 03:41:58;;;;;;;7.00;2.60;;;0.30;55.00;;;;;;5087489;28;20027;-74
2024/01/09 03:44:24;;;;;;;6.40;3.03;;;0.30;55.00;;;;;;5088164;28;20433;-74
2024/01/09 03:46:50;;;;;;;8.03;2.87;;;0.20;55.10;;;;;;5076461;28;20024;-73
2024/01/09 03:49:16;;;;;;;7.27;2.90;;;0.20;55.00;;;;;;5100088;28;20460;-74
2024/01/09 03:51:41;;;;;;;7.20;2.77;;;0.20;55.20;;;;;;5086583;28;20134;-73
2024/01/09 03:54:07;;;;;;;7.10;2.90;;;0.10;55.20;;;;;;5087295;28;20016;-74
2024/01/09 03:56:33;;;;;;;6.43;2.70;;;0.10;55.20;;;;;;5072887;28;20476;-73
2024/01/09 03:58:59;;;;;;;6.77;2.67;;;0.10;55.20;;;;;;5088509;28;20030;-73
2024/01/09 04:01:24;;;;;;;8.17;3.27;;;0.10;55.20;;;;;;5099245;28;20157;-72
2024/01/09 04:03:50;;;;;;;7.63;2.70;;;0.10;55.20;;;;;;5092840;28;20024;-73
2024/01/09 04:06:16;;;;;;;7.23;2.40;;;0.10;55.20;;;;;;5094585;28;20021;-73
2024/01/09 04:08:42;;;;;;;6.93;2.93;;;0.10;55.20;;;;;;5087041;28;20062;-73
2024/01/09 04:11:07;;;;;;;6.50;2.77;;;0.10;55.20;;;;;;5092326;28;20081;-72
2024/01/09 04:13:33;;;;;;;8.10;3.47;;;0.00;55.10;;;;;;5092745;28;20024;-73
2024/01/09 04:15:59;;;;;;;6.87;2.87;;;0.10;55.20;;;;;;5100088;28;20080;-73
2024/01/09 04:18:25;;;;;;;7.13;2.70;;;0.10;55.30;;;;;;5098104;28;20103;-73
2024/01/09 04:20:50;;;;;;;7.43;3.17;;;0.10;55.30;;;;;;5092452;28;20028;-73
2024/01/09 04:23:16;;;;;;;7.37;2.53;;;0.10;55.20;;;;;;5092868;28;20039;-73
2024/01/09 04:25:42;;;;;;;7.67;3.30;;;0.10;55.20;;;;;;5093152;28;20063;-73
2024/01/09 04:28:07;;;;;;;6.10;2.40;;;0.10;55.20;;;;;;5092281;28;20109;-73
2024/01/09 04:30:33;;;;;;;6.67;2.90;;;0.10;55.20;;;;;;5096047;28;20363;-72
2024/01/09 04:32:59;;;;;;;7.20;2.77;;;0.10;55.10;;;;;;5093783;28;20492;-73
2024/01/09 04:35:25;;;;;;;6.97;2.63;;;0.10;55.10;;;;;;5074724;28;20024;-73
2024/01/09 04:37:50;;;;;;;6.80;2.90;;;0.10;55.10;;;;;;5093623;28;20036;-73
2024/01/09 04:40:16;;;;;;;6.43;2.83;;;0.10;55.00;;;;;;5107549;28;20071;-73
2024/01/09 04:42:42;;;;;;;6.63;2.60;;;0.10;55.00;;;;;;5088978;28;20100;-72
2024/01/09 04:45:08;;;;;;;9.10;3.47;;;0.00;55.00;;;;;;5092698;28;20444;-72
2024/01/09 04:47:34;;;;;;;7.93;2.53;;;0.00;55.10;;;;;;5092538;28;20110;-73
2024/01/09 04:50:00;;;;;;;8.17;2.57;;;0.00;55.10;;;;;;5092504;28;20127;-73
2024/01/09 04:52:25;;;;;;;7.13;2.80;;;0.00;55.10;;;;;;5092284;28;20425;-73
2024/01/09 04:54:51;;;;;;;7.13;3.00;;;0.00;55.10;;;;;;5092208;28;20055;-73
2024/01/09 04:57:17;;;;;;;7.13;2.97;;;0.00;55.10;;;;;;5092598;28;20032;-72
2024/01/09 04:59:43;;;;;;;6.97;3.00;;;0.00;55.00;;;;;;5092178;28;20019;-73
2024/01/09 05:02:09;;;;;;;6.13;2.60;;;0.00;55.00;;;;;;5092588;28;20044;-73
2024/01/09 05:04:35;;;;;;;7.60;3.27;;;-0.10;55.00;;;;;;5090862;28;20135;-73
2024/01/09 05:07:01;;;;;;;7.07;2.87;;;-0.10;55.00;;;;;;5102295;28;20107;-73
2024/01/09 05:09:28;;;;;;;7.67;3.23;;;-0.10;54.90;;;;;;5095250;28;20032;-73
2024/01/09 05:11:53;;;;;;;9.00;2.90;;;-0.10;54.90;;;;;;5095639;28;20039;-73
2024/01/09 05:14:19;;;;;;;8.00;2.67;;;0.00;54.90;;;;;;5078908;28;20024;-73
2024/01/09 05:16:45;;;;;;;6.47;2.90;;;0.00;54.90;;;;;;5095894;28;20081;-73
2024/01/09 05:19:11;;;;;;;8.50;3.27;;;0.00;54.80;;;;;;5096225;28;20399;-73
2024/01/09 05:21:37;;;;;;;7.53;2.93;;;-0.10;54.80;;;;;;5093478;28;20111;-73
2024/01/09 05:24:02;;;;;;;7.77;3.20;;;-0.10;54.80;;;;;;5096862;28;20429;-72
2024/01/09 05:26:28;;;;;;;8.40;3.47;;;-0.10;54.80;;;;;;5103058;28;20030;-73
2024/01/09 05:28:54;;;;;;;6.90;2.80;;;-0.10;54.90;;;;;;5099454;28;20441;-73
2024/01/09 05:31:20;;;;;;;9.20;3.40;;;-0.10;54.80;;;;;;5096559;28;20032;-73
2024/01/09 05:33:47;;;;;;;10.73;4.10;;;-0.10;54.80;;;;;;5096718;28;20032;-72
2024/01/09 05:36:18;;;;;;;7.90;3.27;;;-0.20;54.70;;;;;;5094796;28;20395;-73
2024/01/09 05:38:43;;;;;;;8.23;3.50;;;-0.20;54.70;;;;;;5103566;28;20445;-73
2024/01/09 05:41:17;;;;;;;7.97;3.20;;;-0.20;54.70;;;;;;5092194;28;20024;-72
2024/01/09 05:43:43;;;;;;;8.03;3.63;;;-0.20;54.70;;;;;;5072374;28;20086;-73
2024/01/09 05:46:08;;;;;;;8.87;3.33;;;-0.20;54.70;;;;;;5090841;28;20020;-73
2024/01/09 05:48:34;;;;;;;7.83;3.10;;;-0.20;54.70;;;;;;5102867;28;20034;-73
2024/01/09 05:51:00;;;;;;;7.43;3.00;;;-0.30;54.70;;;;;;5099255;28;20035;-73
2024/01/09 05:53:26;;;;;;;7.50;3.33;;;-0.20;54.70;;;;;;5095327;28;20032;-72
2024/01/09 05:55:51;;;;;;;7.07;3.20;;;-0.30;54.70;;;;;;5095498;28;20073;-72
2024/01/09 05:58:17;;;;;;;6.77;2.73;;;-0.20;54.70;;;;;;5097211;28;20085;-72
2024/01/09 06:00:43;;;;;;;7.23;2.87;;;-0.30;54.70;;;;;;5103239;28;20024;-72
2024/01/09 06:03:08;;;;;;;9.57;4.20;;;-0.20;54.80;;;;;;5079766;28;20047;-72
2024/01/09 06:05:34;;;;;;;8.20;3.63;;;-0.20;54.70;;;;;;5088746;28;20114;-73
2024/01/09 06:08:00;;;;;;;6.23;2.87;;;-0.20;54.80;;;;;;5107735;28;20042;-72
2024/01/09 06:10:26;;;;;;;7.97;3.33;;;-0.30;54.60;;;;;;5091947;28;20032;-73
2024/01/09 06:12:51;;;;;;;6.93;3.17;;;-0.30;54.50;;;;;;5090367;28;20032;-73
2024/01/09 06:15:18;;;;;;;8.60;3.97;;;-0.30;54.60;;;;;;5079307;28;20039;-73
2024/01/09 06:17:43;;;;;;;8.70;3.40;;;-0.40;54.50;;;;;;5097509;27;20036;-73
2024/01/09 06:20:09;;;;;;;9.00;3.87;;;-0.40;54.60;;;;;;5084344;28;20016;-73
2024/01/09 06:22:35;;;;;;;9.53;4.00;;;-0.30;54.70;;;;;;5078167;28;20039;-73
2024/01/09 06:25:01;;;;;;;8.87;3.30;;;-0.30;54.60;;;;;;5083834;28;20020;-74
2024/01/09 06:27:27;;;;;;;9.40;3.97;;;-0.40;54.60;;;;;;5089747;28;20052;-74
2024/01/09 06:29:52;;;;;;;9.70;3.47;;;-0.30;54.60;;;;;;5086765;28;20085;-74
2024/01/09 06:32:18;;;;;;;9.40;4.23;;;-0.40;54.50;;;;;;5089867;28;20056;-74
2024/01/09 06:34:44;;;;;;;8.20;3.50;;;-0.30;54.60;;;;;;5077233;28;20024;-74
2024/01/09 06:37:09;;;;;;;7.47;3.40;;;-0.40;54.60;;;;;;5080017;28;20043;-73
2024/01/09 06:39:36;;;;;;;7.13;3.40;;;-0.40;54.50;;;;;;5078107;28;20036;-74
2024/01/09 06:42:02;;;;;;;7.80;3.47;;;-0.40;54.50;;;;;;5074299;28;20061;-74
2024/01/09 06:44:27;;;;;;;9.00;4.00;;;-0.40;54.50;;;;;;5061450;28;20107;-74
2024/01/09 06:46:53;;;;;;;8.77;4.07;;;-0.40;54.50;;;;;;5072773;28;20028;-74
2024/01/09 06:49:19;;;;;;;7.63;3.90;;;-0.50;54.50;;;;;;5069960;28;20043;-74
2024/01/09 06:51:45;;;;;;;8.20;3.60;;;-0.50;54.60;;;;;;5088336;28;20038;-74
2024/01/09 06:54:11;;;;;;;8.17;3.97;;;-0.50;54.60;;;;;;5093993;28;20161;-74
2024/01/09 06:56:41;;;;;;;8.43;3.73;;;-0.50;54.50;;;;;;5093324;28;20103;-74
2024/01/09 06:59:06;;;;;;;8.53;3.57;;;-0.50;54.50;;;;;;5095101;28;20039;-74
2024/01/09 07:01:35;;;;;;;9.30;3.60;;;-0.50;54.50;;;;;;5093610;28;20020;-74
2024/01/09 07:04:01;;;;;;;7.43;3.37;;;-0.50;54.50;;;;;;5093905;28;20035;-74
2024/01/09 07:06:27;;;;;;;10.23;4.20;;;-0.50;54.50;;;;;;5075506;28;20119;-73
2024/01/09 07:08:52;;;;;;;7.77;3.73;;;-0.50;54.50;;;;;;5099803;28;20110;-73
2024/01/09 07:11:18;;;;;;;9.53;4.23;;;-0.50;54.50;;;;;;5094775;28;20032;-74
2024/01/09 07:13:44;;;;;;;8.67;3.20;;;-0.50;54.40;;;;;;5092517;28;20020;-74
2024/01/09 07:16:10;;;;;;;7.97;3.63;;;-0.50;54.50;;;;;;5093759;28;20032;-74
2024/01/09 07:18:36;;;;;;;8.97;4.40;;;-0.60;54.40;;;;;;5092061;28;20081;-73
2024/01/09 07:21:02;;;;;;;8.90;3.77;;;-0.60;54.40;;;;;;5092425;28;20024;-73
2024/01/09 07:23:28;;;;;;;9.50;3.73;;;-0.60;54.40;;;;;;5092607;28;20392;-72
2024/01/09 07:25:54;;;;;;;9.07;4.07;;;-0.60;54.40;;;;;;5092637;28;20066;-72
2024/01/09 07:28:20;;;;;;;9.67;3.80;;;-0.60;54.40;;;;;;5073373;28;20036;-73
2024/01/09 07:30:46;;;;;;;7.80;3.57;;;-0.60;54.40;;;;;;5093027;28;20066;-73
2024/01/09 07:33:11;;;;;;;9.60;3.70;;;-0.60;54.40;;;;;;5093071;28;20024;-73
2024/01/09 07:35:37;;;;;;;7.40;3.57;;;-0.60;54.30;;;;;;5093158;28;20043;-76
2024/01/09 07:38:04;;;;;;;7.53;3.07;;;-0.60;54.30;;;;;;5093829;28;20039;-70
2024/01/09 07:40:30;;;;;;;8.87;3.77;;;-0.60;54.30;;;;;;5093906;28;20023;-71
2024/01/09 07:42:58;;;;;;;7.37;3.17;;;-0.60;54.30;;;;;;5094955;28;20019;-72
2024/01/09 07:45:28;;;;;;;8.87;4.10;;;-0.60;54.30;;;;;;5073868;28;20118;-69
2024/01/09 07:47:59;;;;;;;8.67;3.60;;;-0.70;54.20;;;;;;5092789;28;20020;-72
2024/01/09 07:50:25;;;;;;;8.00;3.40;;;-0.70;54.20;;;;;;5089149;28;20051;-73
2024/01/09 07:52:51;;;;;;;9.73;4.17;;;-0.70;54.20;;;;;;5091691;28;20020;-73
2024/01/09 07:55:16;;;;;;;7.77;3.70;;;-0.70;54.20;;;;;;5095795;28;20028;-73
2024/01/09 07:57:42;;;;;;;8.80;3.63;;;-0.60;54.10;;;;;;5093361;28;20020;-72
2024/01/09 08:00:09;;;;;;;9.53;4.03;;;-0.60;54.10;;;;;;5093704;28;20024;-72
2024/01/09 08:02:37;;;;;;;8.23;3.53;;;-0.60;54.10;;;;;;5081892;28;20020;-72
2024/01/09 08:05:04;;;;;;;10.20;4.00;;;-0.60;53.90;;;;;;5094058;28;20337;-72
2024/01/09 08:07:30;;;;;;;8.97;3.70;;;-0.60;53.80;;;;;;5092543;28;20044;-72
2024/01/09 08:09:56;;;;;;;10.23;4.07;;;-0.60;53.70;;;;;;5092357;28;20502;-73
2024/01/09 08:12:21;;;;;;;10.23;4.27;;;-0.60;53.70;;;;;;5092988;28;20470;-73
2024/01/09 08:14:49;;;;;;;11.63;3.80;;;-0.50;53.60;;;;;;5091876;28;20032;-72
2024/01/09 08:17:14;;;;;;;9.13;3.70;;;-0.50;53.50;;;;;;5092271;28;20028;-73
2024/01/09 08:19:40;;;;;;;9.77;3.80;;;-0.50;53.30;;;;;;5074903;28;20024;-73
2024/01/09 08:22:06;;;;;;;9.40;4.43;;;-0.50;53.30;;;;;;5093187;28;20030;-73
2024/01/09 08:24:32;;;;;;;8.43;3.67;;;-0.50;53.20;;;;;;5092055;28;20471;-72
2024/01/09 08:26:58;;;;;;;8.93;3.50;;;-0.50;53.20;;;;;;5092825;28;20044;-73
2024/01/09 08:29:27;;;;;;;9.17;4.07;;;-0.50;53.10;;;;;;5091813;28;20028;-72
2024/01/09 08:31:53;;;;;;;8.37;3.53;;;-0.50;53.00;;;;;;5091544;28;20111;-73
2024/01/09 08:34:19;;;;;;;8.27;3.77;;;-0.40;52.90;;;;;;5091888;28;20043;-73
2024/01/09 08:36:46;;;;;;;9.03;3.33;;;-0.20;52.90;;;;;;5093251;28;20115;-73
2024/01/09 08:39:15;;;;;;;9.37;4.10;;;0.00;52.70;;;;;;5094077;28;20073;-73
2024/01/09 08:41:41;;;;;;;8.90;4.33;;;0.10;52.50;;;;;;5101568;28;20119;-74
2024/01/09 08:44:08;;;;;;;7.93;3.20;;;0.20;52.00;;;;;;5094846;28;20067;-73
2024/01/09 08:46:34;;;;;;;9.00;3.53;;;0.30;52.00;;;;;;5097198;28;20059;-73
2024/01/09 08:49:00;;;;;;;8.97;3.57;;;0.40;51.80;;;;;;5095947;28;20102;-74
2024/01/09 08:51:27;;;;;;;9.43;3.70;;;0.50;51.70;;;;;;5095264;28;20064;-72
2024/01/09 08:53:56;;;;;;;7.80;3.40;;;0.50;51.20;;;;;;5096815;28;20024;-73
2024/01/09 08:56:22;;;;;;;8.93;4.00;;;0.60;51.10;;;;;;5104418;28;20032;-72
2024/01/09 08:58:47;;;;;;;8.83;3.97;;;0.60;50.90;;;;;;5077620;28;20163;-72
2024/01/09 09:01:18;;;;;;;8.67;3.03;;;0.70;50.80;;;;;;5097298;28;20020;-72
2024/01/09 09:03:44;;;;;;;7.78;3.30;;;0.80;50.70;;;;;;5096485;28;20032;-72
2024/01/09 09:06:10;;;;;;;7.93;3.77;;;0.90;50.50;;;;;;5077547;28;20025;-73
2024/01/09 09:08:36;;;;;;;9.70;4.07;;;1.00;50.30;;;;;;5095873;28;20111;-73
2024/01/09 09:11:02;;;;;;;8.40;3.27;;;1.00;50.10;;;;;;5096461;28;20032;-73
2024/01/09 09:13:28;;;;;;;7.60;3.13;;;1.10;50.00;;;;;;5095188;28;20107;-73
2024/01/09 09:15:54;;;;;;;8.40;3.40;;;1.10;49.90;;;;;;5096529;28;20397;-72
2024/01/09 09:18:20;;;;;;;9.13;3.80;;;1.10;49.80;;;;;;5095495;28;20024;-71
2024/01/09 09:20:45;;;;;;;7.97;3.20;;;1.10;49.50;;;;;;5094716;28;20024;-72
2024/01/09 09:23:11;;;;;;;8.70;3.60;;;1.10;49.40;;;;;;5095325;28;20027;-71
2024/01/09 09:25:37;;;;;;;8.43;3.27;;;1.20;49.30;;;;;;5096092;28;20031;-71
2024/01/09 09:28:03;;;;;;;8.00;3.50;;;1.30;49.10;;;;;;5096441;28;20043;-76
2024/01/09 09:30:29;;;;;;;8.83;3.63;;;1.30;48.90;;;;;;5097726;28;20465;-74
2024/01/09 09:32:57;;;;;;;8.07;3.43;;;1.40;48.70;;;;;;5095312;28;20039;-74
2024/01/09 09:35:22;;;;;;;10.10;3.57;;;1.40;48.50;;;;;;5096518;28;20353;-74
2024/01/09 09:37:48;;;;;;;8.10;3.20;;;1.40;48.70;;;;;;5095408;28;20039;-75
2024/01/09 09:40:14;;;;;;;8.60;3.33;;;1.40;48.50;;;;;;5093039;28;20020;-75
2024/01/09 09:42:42;;;;;;;7.67;3.40;;;1.40;48.40;;;;;;5096074;28;20111;-74
2024/01/09 09:45:11;;;;;;;7.70;3.33;;;1.50;48.30;;;;;;5102296;28;20113;-74
2024/01/09 09:47:39;;;;;;;8.93;4.00;;;1.50;48.40;;;;;;5098783;28;20429;-75
2024/01/09 09:50:09;;;;;;;6.67;2.90;;;1.50;48.40;;;;;;5088818;28;20043;-75
2024/01/09 09:52:40;;;;;;;10.10;3.73;;;1.50;48.30;;;;;;5091348;28;20032;-75
2024/01/09 09:55:07;;;;;;;8.55;3.33;;;1.50;48.20;;;;;;5087561;28;20029;-75
2024/01/09 09:57:32;;;;;;;7.50;3.60;;;1.40;48.20;;;;;;5098852;28;20031;-75
2024/01/09 09:59:58;;;;;;;8.50;3.53;;;1.40;48.10;;;;;;5090063;28;20032;-75
2024/01/09 10:02:27;;;;;;;7.30;3.10;;;1.40;48.20;;;;;;5088437;28;20032;-74
2024/01/09 10:04:53;;;;;;;9.13;3.60;;;1.40;48.10;;;;;;5096377;28;20020;-74
2024/01/09 10:07:21;;;;;;;8.93;3.80;;;1.40;48.10;;;;;;5095530;28;20040;-74
2024/01/09 10:09:51;;;;;;;8.70;3.67;;;1.50;47.90;;;;;;5094892;28;20028;-74
2024/01/09 10:12:19;;;;;;;7.10;3.13;;;1.60;47.70;;;;;;5095129;28;20356;-74
2024/01/09 10:15:07;;;;;;;7.90;3.20;;;1.80;47.50;;;;;;5094940;28;20352;-75
2024/01/09 10:17:34;;;;;;;8.10;3.17;;;1.90;46.90;;;;;;5094457;28;20038;-74
2024/01/09 10:20:00;;;;;;;9.13;3.33;;;2.20;46.90;;;;;;5078345;28;20119;-71
2024/01/09 10:22:29;;;;;;;7.77;3.20;;;2.40;46.60;;;;;;5087910;28;20028;-72
2024/01/09 10:24:56;;;;;;;8.07;3.30;;;2.60;46.20;;;;;;5094540;28;20043;-75
2024/01/09 10:27:22;;;;;;;6.60;2.70;;;2.80;46.00;;;;;;5096091;28;20063;-74
2024/01/09 10:29:48;;;;;;;7.73;3.20;;;3.00;45.60;;;;;;5077986;28;20403;-74
2024/01/09 10:32:14;;;;;;;8.30;3.80;;;3.10;45.40;;;;;;5094366;28;20089;-72
2024/01/09 10:34:40;;;;;;;7.27;3.33;;;3.20;45.10;;;;;;5083017;28;20025;-73
2024/01/09 10:37:07;;;;;;;8.10;3.40;;;3.30;44.90;;;;;;5086210;28;20337;-74
2024/01/09 10:39:33;;;;;;;8.13;3.40;;;3.50;44.80;;;;;;5093812;28;20016;-74
2024/01/09 10:42:07;;;;;;;9.43;3.30;;;3.60;44.70;;;;;;5089912;28;20059;-73
2024/01/09 10:44:33;;;;;;;7.40;3.27;;;3.70;44.40;;;;;;5079840;28;20103;-75
2024/01/09 10:47:00;;;;;;;8.27;3.37;;;3.70;44.20;;;;;;5086793;28;20024;-75
2024/01/09 10:49:27;;;;;;;9.50;3.47;;;3.70;44.20;;;;;;5080796;28;20020;-74
2024/01/09 10:51:55;;;;;;;8.50;3.50;;;3.70;44.10;;;;;;5086225;28;20031;-73
2024/01/09 10:54:21;;;;;;;7.43;3.00;;;3.80;43.90;;;;;;5086229;28;20029;-74
2024/01/09 10:56:50;;;;;;;6.70;2.73;;;3.80;43.80;;;;;;5062814;28;20084;-74
2024/01/09 10:59:16;;;;;;;8.07;3.17;;;3.80;43.70;;;;;;5066798;28;20107;-74
2024/01/09 11:01:42;;;;;;;8.73;3.20;;;3.90;43.70;;;;;;5079271;28;20452;-73
2024/01/09 11:04:08;;;;;;;7.20;3.03;;;3.80;43.60;;;;;;5087925;28;20119;-73
2024/01/09 11:06:36;;;;;;;7.43;3.33;;;3.90;43.40;;;;;;5087803;28;20061;-74
2024/01/09 11:09:04;;;;;;;8.10;3.23;;;3.80;43.40;;;;;;5081214;28;20052;-74
2024/01/09 11:11:33;;;;;;;7.93;3.53;;;3.80;43.30;;;;;;5087163;28;20031;-74
2024/01/09 11:14:06;;;;;;;8.93;3.53;;;3.90;43.20;;;;;;5092151;28;20180;-73
2024/01/09 11:16:35;;;;;;;8.10;3.00;;;3.90;43.10;;;;;;5075239;28;20020;-75
2024/01/09 11:19:03;;;;;;;8.83;3.67;;;3.90;43.60;;;;;;5082359;28;20475;-73
2024/01/09 11:21:30;;;;;;;7.60;2.97;;;3.90;42.70;;;;;;5075545;28;20360;-73
2024/01/09 11:23:57;;;;;;;7.30;2.87;;;3.80;42.90;;;;;;5081658;28;20043;-74
2024/01/09 11:26:27;;;;;;;7.93;3.50;;;3.70;42.90;;;;;;5090979;28;20028;-73
2024/01/09 11:28:53;;;;;;;6.73;2.77;;;3.70;42.80;;;;;;5086457;28;20044;-73
2024/01/09 11:31:20;;;;;;;7.90;3.37;;;3.70;42.90;;;;;;5085491;28;20032;-73
2024/01/09 11:33:53;;;;;;;8.67;3.10;;;3.60;42.80;;;;;;5083932;28;20093;-73
2024/01/09 11:36:30;;;;;;;5.97;2.67;;;3.50;42.80;;;;;;5081947;28;20048;-73
2024/01/09 11:38:56;;;;;;;6.97;3.00;;;3.50;42.80;;;;;;5084419;28;20369;-72
2024/01/09 11:41:23;;;;;;;6.83;2.90;;;3.40;42.80;;;;;;5089182;28;20016;-72
2024/01/09 11:44:11;;;;;;;7.83;2.87;;;3.40;42.80;;;;;;5093332;28;20042;-72
2024/01/09 11:46:38;;;;;;;7.60;2.83;;;3.30;42.70;;;;;;5081188;28;20112;-72
2024/01/09 11:49:06;;;;;;;8.27;3.20;;;3.20;42.70;;;;;;5093525;28;20103;-72
2024/01/09 11:51:33;;;;;;;8.30;2.90;;;3.10;42.70;;;;;;5082509;28;20070;-72
2024/01/09 11:54:00;;;;;;;5.80;2.67;;;3.10;42.80;;;;;;5094122;28;20031;-71
2024/01/09 11:56:27;;;;;;;6.87;2.67;;;3.00;42.90;;;;;;5093709;28;20024;-74
2024/01/09 11:58:53;;;;;;;7.37;3.20;;;3.00;43.50;;;;;;5100960;28;20031;-73
2024/01/09 12:01:22;;;;;;;6.77;2.43;;;2.90;42.90;;;;;;5093858;28;20042;-73
2024/01/09 12:03:56;;;;;;;8.40;3.13;;;2.90;42.80;;;;;;5092201;28;20040;-71
2024/01/09 12:06:24;;;;;;;7.27;2.50;;;2.90;42.60;;;;;;5093044;28;20050;-72
2024/01/09 12:08:51;;;;;;;6.73;2.67;;;2.80;42.60;;;;;;5088702;28;20055;-75
2024/01/09 12:11:17;;;;;;;7.83;2.97;;;2.70;42.60;;;;;;5090102;28;20028;-75
2024/01/09 12:13:44;;;;;;;8.17;2.83;;;2.70;42.60;;;;;;5093608;28;20093;-74
2024/01/09 12:16:22;;;;;;;10.10;2.80;;;2.70;42.70;;;;;;5097769;28;20032;-75
2024/01/09 12:18:51;;;;;;;7.93;2.57;;;2.70;42.50;;;;;;5098094;28;20025;-75
2024/01/09 12:21:18;;;;;;;6.23;2.70;;;2.70;42.60;;;;;;5097510;28;20085;-75
2024/01/09 12:23:47;;;;;;;6.40;2.57;;;2.70;42.50;;;;;;5098083;28;20016;-74
2024/01/09 12:26:15;;;;;;;7.73;2.73;;;2.70;42.40;;;;;;5097685;28;20034;-74
2024/01/09 12:28:41;;;;;;;6.23;2.67;;;2.70;42.40;;;;;;5097093;28;20044;-75
2024/01/09 12:31:08;;;;;;;7.97;3.00;;;2.70;42.30;;;;;;5097157;28;20028;-74
2024/01/09 12:33:34;;;;;;;6.17;2.53;;;2.70;42.30;;;;;;5096551;28;20111;-75
2024/01/09 12:36:00;;;;;;;9.67;3.17;;;2.70;42.20;;;;;;5096902;28;20124;-74
2024/01/09 12:38:26;;;;;;;5.60;2.20;;;2.70;42.20;;;;;;5101240;28;20401;-73
2024/01/09 12:41:04;;;;;;;6.40;2.80;;;2.70;42.20;;;;;;5097801;28;20042;-74
2024/01/09 12:43:30;;;;;;;6.87;2.47;;;2.80;41.80;;;;;;5101913;28;20111;-75
2024/01/09 12:45:59;;;;;;;7.23;2.83;;;2.70;41.90;;;;;;5098650;28;20348;-73
2024/01/09 12:48:26;;;;;;;7.50;2.67;;;2.70;41.80;;;;;;5097152;28;20415;-72